Time;durP1;ratioP1;P1;durP2;ratioP2;P2;SDS_P1;SDS_P2;PMS_P1;PMS_P2;Temp;Humidity;BMP_temperature;BMP_pressure;BME280_temperature;BME280_humidity;BME280_pressure;Samples;Min_cycle;Max_cycle;Signal;HPM_P1;HPM_P2
2021/03/13 00:00:08;;;;;;;10.77;3.27;;;6.80;99.90;;;;;;5056279;28;20690;-61
2021/03/13 00:02:36;;;;;;;7.60;2.77;;;6.80;99.90;;;;;;5063675;28;20188;-60
2021/03/13 00:05:04;;;;;;;14.13;3.40;;;6.80;99.90;;;;;;5064600;28;20191;-60
2021/03/13 00:07:32;;;;;;;9.13;3.33;;;6.70;99.90;;;;;;5061152;28;20287;-61
2021/03/13 00:10:03;;;;;;;9.60;3.17;;;6.70;99.90;;;;;;5064043;28;20196;-61
2021/03/13 00:12:31;;;;;;;9.33;3.10;;;6.70;99.90;;;;;;5063657;28;20223;-61
2021/03/13 00:14:59;;;;;;;16.90;3.77;;;6.70;99.90;;;;;;5060270;28;20235;-60
2021/03/13 00:17:27;;;;;;;14.50;4.70;;;6.70;99.90;;;;;;5063065;28;20215;-60
2021/03/13 00:19:54;;;;;;;15.73;3.90;;;6.70;99.90;;;;;;5064595;28;20196;-61
2021/03/13 00:22:22;;;;;;;15.83;4.27;;;6.70;99.90;;;;;;5062485;28;20199;-61
2021/03/13 00:24:50;;;;;;;11.97;3.53;;;6.70;99.90;;;;;;5068577;28;20226;-61
2021/03/13 00:27:18;;;;;;;11.50;4.20;;;6.80;99.90;;;;;;5075277;28;20282;-61
2021/03/13 00:29:46;;;;;;;15.60;3.30;;;6.80;99.90;;;;;;5062262;28;20304;-61
2021/03/13 00:32:13;;;;;;;9.47;3.13;;;6.80;99.90;;;;;;5061883;28;20192;-61
2021/03/13 00:34:41;;;;;;;10.10;3.03;;;6.80;99.90;;;;;;5074046;28;20642;-61
2021/03/13 00:37:08;;;;;;;8.10;3.23;;;6.80;99.90;;;;;;5072880;28;20192;-61
2021/03/13 00:39:42;;;;;;;12.93;3.20;;;6.80;99.90;;;;;;5073740;28;20202;-61
2021/03/13 00:42:10;;;;;;;12.00;2.70;;;6.80;99.90;;;;;;5064286;28;20555;-60
2021/03/13 00:44:37;;;;;;;8.80;2.90;;;6.80;99.90;;;;;;5067365;28;20287;-60
2021/03/13 00:47:05;;;;;;;9.83;3.20;;;6.70;99.90;;;;;;5067130;28;20742;-61
2021/03/13 00:49:33;;;;;;;13.10;3.20;;;6.70;99.90;;;;;;5076114;28;20290;-61
2021/03/13 00:52:00;;;;;;;8.07;3.17;;;6.70;99.90;;;;;;5063415;28;20297;-61
2021/03/13 00:54:28;;;;;;;13.90;3.10;;;6.80;99.90;;;;;;5063612;28;20667;-61
2021/03/13 00:56:55;;;;;;;10.07;3.10;;;6.80;99.90;;;;;;5070035;28;20286;-60
2021/03/13 00:59:23;;;;;;;10.37;3.00;;;6.80;99.90;;;;;;5062798;28;20196;-61
2021/03/13 01:01:50;;;;;;;9.13;3.10;;;6.80;99.90;;;;;;5064347;28;20214;-61
2021/03/13 01:04:18;;;;;;;11.03;3.30;;;6.80;99.90;;;;;;5064581;28;20207;-60
2021/03/13 01:06:46;;;;;;;8.13;2.80;;;6.70;99.90;;;;;;5061529;28;20219;-61
2021/03/13 01:09:13;;;;;;;8.40;2.87;;;6.70;99.90;;;;;;5064673;28;20278;-61
2021/03/13 01:11:40;;;;;;;15.27;3.20;;;6.70;99.90;;;;;;5081516;28;20616;-60
2021/03/13 01:14:08;;;;;;;10.60;3.00;;;6.70;99.90;;;;;;5069276;28;20231;-61
2021/03/13 01:16:36;;;;;;;8.37;2.83;;;6.70;99.90;;;;;;5062710;28;20296;-61
2021/03/13 01:19:04;;;;;;;10.03;3.17;;;6.70;99.90;;;;;;5070124;28;20196;-61
2021/03/13 01:21:32;;;;;;;10.27;2.87;;;6.70;99.90;;;;;;5068839;28;20674;-61
2021/03/13 01:24:00;;;;;;;5.70;2.80;;;6.70;99.90;;;;;;5064034;28;20218;-61
2021/03/13 01:26:28;;;;;;;5.73;2.00;;;6.80;99.90;;;;;;5067983;28;20368;-60
2021/03/13 01:28:57;;;;;;;8.13;2.47;;;6.90;99.90;;;;;;5070330;28;20290;-61
2021/03/13 01:31:27;;;;;;;11.93;2.70;;;6.90;99.90;;;;;;5072395;28;20659;-62
2021/03/13 01:33:54;;;;;;;6.57;2.50;;;7.00;99.90;;;;;;5070550;28;20192;-61
2021/03/13 01:36:21;;;;;;;10.27;2.63;;;7.00;99.90;;;;;;5070165;28;20196;-61
2021/03/13 01:38:50;;;;;;;5.50;2.10;;;7.00;99.90;;;;;;5069207;28;20192;-61
2021/03/13 01:41:19;;;;;;;5.67;2.03;;;7.00;99.90;;;;;;5056730;28;20830;-61
2021/03/13 01:43:47;;;;;;;8.17;2.70;;;7.10;99.90;;;;;;5067677;28;20892;-62
2021/03/13 01:46:15;;;;;;;6.93;2.43;;;7.20;99.90;;;;;;5060209;28;20193;-61
2021/03/13 01:48:45;;;;;;;5.73;2.50;;;7.20;99.90;;;;;;5065021;28;20689;-61
2021/03/13 01:51:13;;;;;;;8.87;2.40;;;7.20;99.90;;;;;;5069364;28;20216;-61
2021/03/13 01:53:41;;;;;;;10.40;2.50;;;7.20;99.90;;;;;;5070162;28;20192;-61
2021/03/13 01:56:09;;;;;;;5.43;2.60;;;7.10;99.90;;;;;;5068620;28;20295;-61
2021/03/13 01:58:36;;;;;;;6.93;2.40;;;7.10;99.90;;;;;;5063313;28;20702;-61
2021/03/13 02:01:19;;;;;;;9.93;2.50;;;7.10;99.90;;;;;;5064844;28;20282;-61
2021/03/13 02:03:47;;;;;;;7.17;2.23;;;7.10;99.90;;;;;;5072672;28;20202;-61
2021/03/13 02:06:16;;;;;;;9.30;2.40;;;7.20;99.90;;;;;;5070052;28;20207;-61
2021/03/13 02:08:48;;;;;;;11.83;2.93;;;7.30;99.90;;;;;;5070522;28;20282;-61
2021/03/13 02:11:25;;;;;;;6.63;2.33;;;7.30;99.90;;;;;;5069135;28;20292;-61
2021/03/13 02:13:59;;;;;;;8.97;2.77;;;7.40;99.90;;;;;;5066520;28;20195;-61
2021/03/13 02:16:31;;;;;;;7.03;2.67;;;7.50;99.90;;;;;;5065983;28;20331;-61
2021/03/13 02:19:15;;;;;;;12.43;3.13;;;7.50;99.90;;;;;;5061608;28;20188;-61
2021/03/13 02:21:47;;;;;;;10.07;2.60;;;7.50;99.90;;;;;;5068558;28;20208;-61
2021/03/13 02:24:48;;;;;;;8.33;2.80;;;7.50;99.90;;;;;;5064774;28;20192;-61
2021/03/13 02:27:20;;;;;;;7.30;2.33;;;7.50;99.90;;;;;;5069511;28;20207;-61
2021/03/13 02:29:51;;;;;;;9.07;3.27;;;7.50;99.90;;;;;;5077138;28;20321;-60
2021/03/13 02:32:37;;;;;;;10.23;2.70;;;7.40;99.90;;;;;;5063894;28;20192;-60
2021/03/13 02:35:09;;;;;;;7.23;2.23;;;7.40;99.90;;;;;;5068176;28;20188;-60
2021/03/13 02:37:41;;;;;;;9.93;2.60;;;7.40;99.90;;;;;;5065463;28;20372;-60
2021/03/13 02:40:10;;;;;;;12.17;2.83;;;7.50;99.90;;;;;;5063766;28;20226;-61
2021/03/13 02:42:45;;;;;;;13.40;2.77;;;7.50;99.90;;;;;;5068526;28;20226;-60
2021/03/13 02:45:15;;;;;;;11.03;2.73;;;7.50;99.90;;;;;;5066354;28;20272;-60
2021/03/13 02:47:45;;;;;;;17.77;2.77;;;7.50;99.90;;;;;;5064990;28;20269;-61
2021/03/13 02:50:15;;;;;;;17.40;2.87;;;7.50;99.90;;;;;;5069434;28;20326;-60
2021/03/13 02:52:43;;;;;;;10.57;2.50;;;7.50;99.90;;;;;;5080251;28;20211;-60
2021/03/13 02:55:14;;;;;;;19.37;3.00;;;7.50;99.90;;;;;;5055767;28;20361;-60
2021/03/13 02:57:44;;;;;;;9.87;2.50;;;7.50;99.90;;;;;;5065646;28;20188;-61
2021/03/13 03:00:16;;;;;;;22.03;3.40;;;7.50;99.90;;;;;;5067382;28;20191;-60
2021/03/13 03:02:45;;;;;;;15.13;2.70;;;7.50;99.90;;;;;;5064453;28;20188;-60
2021/03/13 03:05:18;;;;;;;8.03;2.53;;;7.50;99.90;;;;;;5072139;28;20265;-60
2021/03/13 03:07:47;;;;;;;12.67;2.90;;;7.50;99.90;;;;;;5063297;28;20638;-60
2021/03/13 03:10:16;;;;;;;11.53;3.17;;;7.40;99.90;;;;;;5070378;28;20317;-60
2021/03/13 03:12:46;;;;;;;7.07;3.00;;;7.40;99.90;;;;;;5060432;28;20219;-60
2021/03/13 03:15:16;;;;;;;6.20;2.27;;;7.50;99.90;;;;;;5072471;28;20311;-60
2021/03/13 03:17:44;;;;;;;5.97;1.90;;;7.50;99.90;;;;;;5062890;28;21779;-60
2021/03/13 03:20:12;;;;;;;7.53;2.40;;;7.50;99.90;;;;;;5066245;28;20747;-60
2021/03/13 03:22:40;;;;;;;12.50;2.37;;;7.50;99.90;;;;;;5062096;28;21009;-61
2021/03/13 03:25:11;;;;;;;10.43;2.57;;;7.50;99.90;;;;;;5067523;28;20477;-60
2021/03/13 03:27:49;;;;;;;10.93;2.53;;;7.50;99.90;;;;;;5064855;28;20253;-60
2021/03/13 03:30:21;;;;;;;5.90;2.57;;;7.50;99.90;;;;;;5064487;28;20196;-60
2021/03/13 03:32:49;;;;;;;8.47;2.33;;;7.40;99.90;;;;;;5071651;28;20191;-60
2021/03/13 03:35:18;;;;;;;5.50;1.87;;;7.40;99.90;;;;;;5064857;28;20200;-60
2021/03/13 03:37:47;;;;;;;17.70;2.70;;;7.50;99.90;;;;;;5070016;28;20588;-60
2021/03/13 03:40:17;;;;;;;4.83;1.90;;;7.50;99.90;;;;;;5065921;28;20196;-60
2021/03/13 03:42:50;;;;;;;9.60;2.17;;;7.40;99.90;;;;;;5066695;28;20557;-60
2021/03/13 03:45:21;;;;;;;8.60;2.30;;;7.40;99.90;;;;;;5065961;28;20196;-60
2021/03/13 03:47:50;;;;;;;5.70;2.03;;;7.40;99.90;;;;;;5068464;28;20286;-60
2021/03/13 03:50:18;;;;;;;5.93;1.97;;;7.50;99.90;;;;;;5064707;28;20527;-60
2021/03/13 03:52:49;;;;;;;6.70;1.80;;;7.50;99.90;;;;;;5065284;28;20706;-60
2021/03/13 03:55:19;;;;;;;5.60;1.93;;;7.50;99.90;;;;;;5074494;28;20260;-60
2021/03/13 03:57:47;;;;;;;3.53;2.20;;;7.50;99.90;;;;;;5063321;28;20288;-60
2021/03/13 04:00:16;;;;;;;9.27;2.00;;;7.50;99.90;;;;;;5063866;28;20289;-60
2021/03/13 04:02:58;;;;;;;4.40;1.77;;;7.50;99.90;;;;;;5064620;28;20191;-60
2021/03/13 04:05:26;;;;;;;10.73;2.30;;;7.50;99.90;;;;;;5073097;28;20650;-61
2021/03/13 04:07:55;;;;;;;10.67;2.20;;;7.60;99.90;;;;;;5062885;28;20221;-60
2021/03/13 04:10:23;;;;;;;7.30;1.90;;;7.50;99.90;;;;;;5066246;28;20199;-60
2021/03/13 04:12:52;;;;;;;8.67;2.23;;;7.50;99.90;;;;;;5067506;28;20623;-60
2021/03/13 04:15:21;;;;;;;10.57;2.40;;;7.60;99.90;;;;;;5067151;28;20232;-60
2021/03/13 04:17:48;;;;;;;11.87;2.20;;;7.60;99.90;;;;;;5066234;28;20245;-60
2021/03/13 04:20:17;;;;;;;10.70;2.33;;;7.60;99.90;;;;;;5064846;28;20198;-61
2021/03/13 04:22:48;;;;;;;14.87;2.77;;;7.60;99.90;;;;;;5063369;28;20687;-60
2021/03/13 04:25:19;;;;;;;8.00;2.50;;;7.70;99.90;;;;;;5071014;28;20298;-61
2021/03/13 04:27:46;;;;;;;14.93;2.93;;;7.70;99.90;;;;;;5067958;28;20743;-61
2021/03/13 04:30:17;;;;;;;5.57;2.33;;;7.70;99.90;;;;;;5065189;28;20194;-60
2021/03/13 04:32:47;;;;;;;8.77;2.37;;;7.80;99.90;;;;;;5065706;28;20647;-60
2021/03/13 04:35:17;;;;;;;9.00;2.20;;;7.70;99.90;;;;;;5076756;28;20406;-60
2021/03/13 04:37:45;;;;;;;9.53;2.47;;;7.80;99.90;;;;;;5066594;28;20250;-60
2021/03/13 04:40:14;;;;;;;16.40;2.90;;;7.70;99.90;;;;;;5065889;28;20288;-60
2021/03/13 04:42:44;;;;;;;9.83;2.57;;;7.70;99.90;;;;;;5063090;28;20680;-60
2021/03/13 04:45:13;;;;;;;12.57;2.90;;;7.70;99.90;;;;;;5069536;28;20713;-60
2021/03/13 04:47:43;;;;;;;18.20;3.27;;;7.70;99.90;;;;;;5079090;28;20195;-60
2021/03/13 04:50:16;;;;;;;14.37;3.90;;;7.70;99.90;;;;;;5068827;28;20265;-60
2021/03/13 04:52:45;;;;;;;11.27;2.70;;;7.70;99.90;;;;;;5070311;28;20199;-61
2021/03/13 04:55:13;;;;;;;12.13;2.93;;;7.70;99.90;;;;;;5073483;28;20200;-60
2021/03/13 04:57:40;;;;;;;11.30;2.50;;;7.70;99.90;;;;;;5073520;28;20203;-59
2021/03/13 05:00:11;;;;;;;12.77;2.70;;;7.60;99.90;;;;;;5066493;28;20276;-60
2021/03/13 05:02:39;;;;;;;8.83;2.63;;;7.60;99.90;;;;;;5068110;28;20306;-60
2021/03/13 05:05:08;;;;;;;7.83;2.63;;;7.60;99.90;;;;;;5071693;28;20184;-59
2021/03/13 05:07:36;;;;;;;7.60;2.63;;;7.60;99.90;;;;;;5058436;28;20224;-59
2021/03/13 05:10:06;;;;;;;9.27;2.70;;;7.60;99.90;;;;;;5070969;28;20551;-59
2021/03/13 05:12:34;;;;;;;11.00;3.53;;;7.60;99.90;;;;;;5072883;28;20196;-58
2021/03/13 05:15:02;;;;;;;14.33;2.83;;;7.50;99.90;;;;;;5065909;28;20314;-60
2021/03/13 05:17:29;;;;;;;7.10;2.33;;;7.50;99.90;;;;;;5077156;28;20227;-61
2021/03/13 05:19:57;;;;;;;7.97;1.93;;;7.50;99.90;;;;;;5075442;28;20184;-59
2021/03/13 05:22:24;;;;;;;3.07;1.57;;;7.30;99.90;;;;;;5067638;28;20240;-59
2021/03/13 05:24:52;;;;;;;1.50;1.27;;;7.10;99.90;;;;;;5069266;28;20699;-59
2021/03/13 05:27:20;;;;;;;2.40;1.20;;;6.90;99.90;;;;;;5069077;28;20669;-59
2021/03/13 05:29:51;;;;;;;3.23;1.33;;;6.70;99.90;;;;;;5067295;28;20290;-59
2021/03/13 05:32:19;;;;;;;3.40;1.53;;;6.50;99.90;;;;;;5063362;28;20203;-59
2021/03/13 05:34:48;;;;;;;1.30;1.20;;;6.50;99.90;;;;;;5073806;28;20195;-60
2021/03/13 05:37:15;;;;;;;4.00;1.30;;;6.40;99.90;;;;;;5076606;28;20271;-60
2021/03/13 05:39:42;;;;;;;2.63;1.20;;;6.30;99.90;;;;;;5065276;28;20359;-60
2021/03/13 05:42:10;;;;;;;3.63;1.30;;;6.30;99.90;;;;;;5070513;28;20216;-59
2021/03/13 05:44:39;;;;;;;4.37;1.20;;;6.30;99.90;;;;;;5069029;28;20224;-59
2021/03/13 05:47:08;;;;;;;4.10;1.40;;;6.20;99.90;;;;;;5067936;28;20223;-60
2021/03/13 05:49:36;;;;;;;4.30;1.30;;;6.20;99.90;;;;;;5064043;28;20573;-60
2021/03/13 05:52:07;;;;;;;5.10;1.50;;;6.20;99.90;;;;;;5065453;28;20283;-59
2021/03/13 05:54:35;;;;;;;1.73;1.43;;;6.20;99.90;;;;;;5070873;28;20259;-59
2021/03/13 05:57:07;;;;;;;2.30;1.10;;;6.20;99.90;;;;;;5065569;28;20642;-60
2021/03/13 05:59:35;;;;;;;2.60;1.20;;;6.20;99.90;;;;;;5063089;28;20324;-60
2021/03/13 06:02:05;;;;;;;1.47;1.33;;;6.10;99.90;;;;;;5062839;28;20265;-60
2021/03/13 06:04:33;;;;;;;1.53;1.23;;;6.00;99.90;;;;;;5062207;28;20192;-60
2021/03/13 06:07:02;;;;;;;6.03;1.23;;;6.00;99.90;;;;;;5061080;28;20222;-60
2021/03/13 06:09:30;;;;;;;2.03;1.20;;;6.00;99.90;;;;;;5063009;28;20610;-60
2021/03/13 06:11:57;;;;;;;2.33;1.20;;;6.00;99.90;;;;;;5076003;28;20192;-60
2021/03/13 06:14:25;;;;;;;3.87;1.60;;;6.00;99.90;;;;;;5066029;28;21482;-60
2021/03/13 06:16:52;;;;;;;6.50;1.33;;;6.00;99.90;;;;;;5069387;28;20238;-60
2021/03/13 06:19:24;;;;;;;7.07;1.67;;;6.00;99.90;;;;;;5066234;28;20188;-60
2021/03/13 06:21:52;;;;;;;7.40;1.63;;;6.00;99.90;;;;;;5070269;28;20216;-60
2021/03/13 06:24:26;;;;;;;4.03;1.53;;;6.00;99.90;;;;;;5065165;28;20192;-60
2021/03/13 06:26:55;;;;;;;9.50;1.70;;;6.00;99.90;;;;;;5070085;28;20200;-59
2021/03/13 06:29:23;;;;;;;6.70;1.90;;;6.00;99.90;;;;;;5069854;28;20222;-61
2021/03/13 06:32:08;;;;;;;5.37;1.70;;;6.00;99.90;;;;;;5065181;28;20613;-61
2021/03/13 06:34:50;;;;;;;6.97;1.80;;;6.00;99.90;;;;;;5074363;28;20361;-60
2021/03/13 06:37:22;;;;;;;3.93;1.77;;;6.00;99.90;;;;;;5075944;28;20500;-60
2021/03/13 06:39:50;;;;;;;10.70;1.83;;;6.00;99.90;;;;;;5075183;28;20245;-61
2021/03/13 06:42:22;;;;;;;10.03;1.80;;;6.10;99.90;;;;;;5074720;28;20603;-60
2021/03/13 06:44:54;;;;;;;6.67;1.83;;;6.10;99.90;;;;;;5061794;28;20219;-60
2021/03/13 06:47:40;;;;;;;6.63;1.53;;;6.10;99.90;;;;;;5067660;28;20649;-60
2021/03/13 06:50:11;;;;;;;4.73;1.90;;;6.20;99.90;;;;;;5067404;28;20244;-60
2021/03/13 06:52:39;;;;;;;4.17;1.60;;;6.20;99.90;;;;;;5060811;28;20650;-61
2021/03/13 06:55:07;;;;;;;8.07;1.67;;;6.30;99.90;;;;;;5066647;28;20246;-60
2021/03/13 06:57:35;;;;;;;17.83;2.47;;;6.30;99.90;;;;;;5068670;28;20280;-61
2021/03/13 07:00:04;;;;;;;9.80;2.20;;;6.30;99.90;;;;;;5063977;28;20188;-60
2021/03/13 07:02:31;;;;;;;7.97;2.53;;;6.40;99.90;;;;;;5070034;28;20621;-61
2021/03/13 07:05:11;;;;;;;5.57;1.70;;;6.40;99.90;;;;;;5067665;28;20302;-63
2021/03/13 07:07:39;;;;;;;10.57;2.13;;;6.50;99.90;;;;;;5068179;28;20192;-60
2021/03/13 07:10:08;;;;;;;2.43;1.50;;;6.60;99.90;;;;;;5067329;28;20201;-61
2021/03/13 07:12:39;;;;;;;4.87;1.87;;;6.60;99.90;;;;;;5063055;28;20239;-60
2021/03/13 07:15:15;;;;;;;6.60;1.83;;;6.60;99.90;;;;;;5070566;28;20263;-61
2021/03/13 07:17:45;;;;;;;6.80;1.90;;;6.70;99.90;;;;;;5068825;28;20551;-60
2021/03/13 07:20:14;;;;;;;7.67;2.00;;;6.70;99.90;;;;;;5062622;28;20670;-63
2021/03/13 07:22:43;;;;;;;12.07;2.40;;;6.70;99.90;;;;;;5069304;28;20204;-60
2021/03/13 07:25:13;;;;;;;8.70;2.03;;;6.80;99.90;;;;;;5066401;28;20261;-61
2021/03/13 07:27:41;;;;;;;11.40;2.27;;;6.80;99.90;;;;;;5069594;28;20302;-61
2021/03/13 07:30:14;;;;;;;6.33;1.93;;;6.80;99.90;;;;;;5060918;28;20684;-61
2021/03/13 07:32:44;;;;;;;6.53;2.30;;;6.80;99.90;;;;;;5058283;28;20626;-61
2021/03/13 07:35:35;;;;;;;5.77;2.07;;;6.80;99.90;;;;;;5072402;28;20561;-61
2021/03/13 07:38:05;;;;;;;14.50;2.50;;;6.90;99.90;;;;;;5063899;28;20863;-61
2021/03/13 07:40:39;;;;;;;13.43;3.07;;;7.00;99.90;;;;;;5068254;28;20236;-61
2021/03/13 07:43:10;;;;;;;7.03;2.13;;;7.10;99.90;;;;;;5068116;28;20770;-61
2021/03/13 07:45:38;;;;;;;11.03;2.37;;;7.20;99.90;;;;;;5066688;28;20246;-61
2021/03/13 07:48:08;;;;;;;13.67;2.63;;;7.30;99.90;;;;;;5065785;28;20287;-61
2021/03/13 07:50:39;;;;;;;14.80;2.43;;;7.30;99.90;;;;;;5066789;28;20192;-61
2021/03/13 07:53:08;;;;;;;13.23;2.47;;;7.30;99.90;;;;;;5066366;28;20210;-61
2021/03/13 07:55:36;;;;;;;11.47;2.40;;;7.30;99.90;;;;;;5067194;28;20291;-61
2021/03/13 07:58:04;;;;;;;12.00;2.67;;;7.30;99.90;;;;;;5074721;28;20279;-61
2021/03/13 08:00:42;;;;;;;13.30;2.83;;;7.40;99.90;;;;;;5071164;28;20202;-61
2021/03/13 08:03:40;;;;;;;13.33;2.43;;;7.40;99.90;;;;;;5068840;28;20219;-61
2021/03/13 08:06:12;;;;;;;15.60;2.50;;;7.60;99.90;;;;;;5066826;28;20195;-61
2021/03/13 08:08:44;;;;;;;8.53;2.33;;;7.70;99.90;;;;;;5069689;28;20750;-61
2021/03/13 08:11:12;;;;;;;15.13;2.70;;;7.70;99.90;;;;;;5069038;28;20326;-61
2021/03/13 08:14:06;;;;;;;13.67;2.60;;;7.80;99.90;;;;;;5070782;28;20291;-61
2021/03/13 08:16:44;;;;;;;14.23;3.00;;;8.10;99.90;;;;;;5068741;28;20606;-60
2021/03/13 08:19:37;;;;;;;16.27;3.50;;;8.60;99.90;;;;;;5068694;28;20215;-61
2021/03/13 08:22:14;;;;;;;21.37;3.70;;;8.70;99.90;;;;;;5058408;28;20642;-61
2021/03/13 08:24:44;;;;;;;14.27;3.30;;;8.90;99.90;;;;;;5068096;28;20246;-61
2021/03/13 08:27:13;;;;;;;15.87;3.50;;;9.10;99.90;;;;;;5065781;28;20676;-61
2021/03/13 08:29:58;;;;;;;19.80;3.50;;;9.20;99.90;;;;;;5060712;28;20279;-61
2021/03/13 08:33:03;;;;;;;19.27;3.63;;;9.00;99.90;;;;;;5067232;28;20218;-61
2021/03/13 08:35:45;;;;;;;18.53;3.70;;;8.80;99.90;;;;;;5073305;28;20417;-61
2021/03/13 08:38:17;;;;;;;21.13;4.17;;;9.00;99.90;;;;;;5063657;28;20842;-62
2021/03/13 08:40:47;;;;;;;18.30;4.00;;;8.90;99.90;;;;;;5064077;28;20254;-61
2021/03/13 08:43:38;;;;;;;21.50;4.67;;;8.70;99.90;;;;;;5063675;28;20239;-61
2021/03/13 08:46:26;;;;;;;21.50;4.10;;;8.60;99.90;;;;;;5062572;28;20496;-60
2021/03/13 08:49:00;;;;;;;18.57;4.33;;;8.50;99.90;;;;;;5065755;28;20547;-61
2021/03/13 08:51:28;;;;;;;19.67;3.33;;;8.40;99.90;;;;;;5064701;28;20273;-61
2021/03/13 08:53:57;;;;;;;23.03;4.47;;;8.40;99.90;;;;;;5066438;28;20299;-61
2021/03/13 08:56:40;;;;;;;22.73;4.50;;;8.40;99.90;;;;;;5068567;28;20298;-61
2021/03/13 08:59:16;;;;;;;22.00;3.17;;;8.70;99.90;;;;;;5062110;28;20193;-61
2021/03/13 09:01:59;;;;;;;21.13;3.93;;;8.90;99.90;;;;;;5063093;28;20505;-61
2021/03/13 09:04:28;;;;;;;19.10;3.83;;;9.00;99.90;;;;;;5063781;28;20215;-61
2021/03/13 09:06:56;;;;;;;13.03;3.40;;;9.50;99.90;;;;;;5069667;28;20318;-60
2021/03/13 09:09:26;;;;;;;14.60;3.00;;;10.20;99.90;;;;;;5056605;28;20663;-61
2021/03/13 09:11:58;;;;;;;20.23;3.83;;;10.80;99.90;;;;;;5064702;28;20196;-61
2021/03/13 09:14:26;;;;;;;22.90;4.03;;;11.20;99.90;;;;;;5067646;28;20286;-61
2021/03/13 09:16:54;;;;;;;21.33;3.93;;;11.40;99.90;;;;;;5064063;28;20222;-61
2021/03/13 09:19:24;;;;;;;22.27;3.90;;;11.40;99.90;;;;;;5064016;28;20195;-61
2021/03/13 09:21:55;;;;;;;17.73;3.63;;;11.00;99.90;;;;;;5067869;28;21074;-61
2021/03/13 09:24:25;;;;;;;22.97;4.27;;;11.10;99.90;;;;;;5072480;28;20208;-61
2021/03/13 09:26:54;;;;;;;25.53;4.63;;;11.30;99.90;;;;;;5066257;28;20200;-61
2021/03/13 09:29:32;;;;;;;17.57;4.17;;;11.60;99.90;;;;;;5066224;28;20192;-61
2021/03/13 09:32:04;;;;;;;22.13;4.80;;;11.30;99.90;;;;;;5061868;28;20180;-61
2021/03/13 09:34:33;;;;;;;16.87;4.30;;;10.70;99.90;;;;;;5068638;28;20544;-61
2021/03/13 09:37:13;;;;;;;23.23;4.50;;;10.50;99.90;;;;;;5072020;28;20199;-61
2021/03/13 09:39:42;;;;;;;16.80;3.73;;;10.40;99.90;;;;;;5069995;28;20257;-61
2021/03/13 09:42:12;;;;;;;12.20;3.50;;;10.60;99.90;;;;;;5074285;28;20231;-61
2021/03/13 09:44:43;;;;;;;16.57;3.93;;;10.70;99.90;;;;;;5070191;28;20283;-61
2021/03/13 09:47:14;;;;;;;19.23;4.07;;;11.00;99.90;;;;;;5071521;28;20283;-61
2021/03/13 09:49:43;;;;;;;21.40;4.70;;;11.20;99.90;;;;;;5067512;28;20639;-61
2021/03/13 09:52:12;;;;;;;17.97;4.13;;;11.20;99.90;;;;;;5067655;28;20219;-61
2021/03/13 09:54:42;;;;;;;17.87;3.80;;;10.90;99.90;;;;;;5067004;28;20210;-61
2021/03/13 09:57:14;;;;;;;19.87;4.00;;;10.80;99.90;;;;;;5080232;28;20644;-61
2021/03/13 09:59:42;;;;;;;13.57;4.10;;;11.00;99.90;;;;;;5080991;28;20290;-61
2021/03/13 10:02:10;;;;;;;21.73;4.00;;;10.70;99.90;;;;;;5074224;28;20274;-61
2021/03/13 10:04:38;;;;;;;18.83;3.77;;;10.20;99.90;;;;;;5073043;28;20188;-61
2021/03/13 10:07:26;;;;;;;23.13;4.33;;;9.70;99.90;;;;;;5068770;28;20204;-61
2021/03/13 10:09:56;;;;;;;18.93;3.30;;;9.70;99.90;;;;;;5066696;28;20587;-61
2021/03/13 10:12:29;;;;;;;18.30;4.03;;;10.60;99.90;;;;;;5069188;28;20187;-61
2021/03/13 10:15:10;;;;;;;24.27;4.30;;;11.40;99.90;;;;;;5071540;28;20231;-61
2021/03/13 10:18:05;;;;;;;17.90;3.90;;;11.80;99.90;;;;;;5068755;28;20195;-61
2021/03/13 10:20:35;;;;;;;17.40;3.60;;;12.00;99.90;;;;;;5022658;28;20637;-61
2021/03/13 10:23:06;;;;;;;15.57;3.47;;;12.00;99.90;;;;;;5066685;28;20320;-61
2021/03/13 10:25:36;;;;;;;14.20;3.90;;;11.40;99.90;;;;;;5069891;28;21351;-61
2021/03/13 10:28:05;;;;;;;16.87;3.53;;;11.10;99.90;;;;;;5068448;28;20216;-61
2021/03/13 10:30:33;;;;;;;20.03;4.33;;;10.70;99.90;;;;;;5072106;28;20303;-61
2021/03/13 10:33:09;;;;;;;21.43;3.73;;;10.60;99.90;;;;;;5067601;28;20188;-61
2021/03/13 10:35:37;;;;;;;16.50;3.63;;;10.20;99.90;;;;;;5063355;28;20204;-61
2021/03/13 10:38:16;;;;;;;14.63;4.07;;;9.80;99.90;;;;;;5070643;28;20204;-61
2021/03/13 10:40:46;;;;;;;13.87;3.00;;;9.80;99.90;;;;;;5071079;28;20200;-61
2021/03/13 10:43:33;;;;;;;13.67;3.40;;;10.90;99.90;;;;;;5076739;28;20261;-61
2021/03/13 10:46:12;;;;;;;18.37;3.87;;;12.00;99.90;;;;;;5068978;28;20609;-61
2021/03/13 10:49:05;;;;;;;12.63;3.17;;;12.50;99.90;;;;;;5064888;28;20188;-61
2021/03/13 10:51:36;;;;;;;12.10;3.60;;;11.90;99.90;;;;;;5061482;28;20196;-61
2021/03/13 10:54:04;;;;;;;15.50;3.27;;;11.50;99.90;;;;;;5069036;28;20597;-61
2021/03/13 10:56:43;;;;;;;17.60;3.70;;;10.90;99.90;;;;;;5065778;28;20283;-61
2021/03/13 10:59:11;;;;;;;19.87;3.27;;;10.80;99.90;;;;;;5070887;28;20183;-61
2021/03/13 11:01:43;;;;;;;16.17;3.40;;;10.70;99.90;;;;;;5067932;28;20250;-61
2021/03/13 11:04:12;;;;;;;24.00;4.10;;;10.20;99.90;;;;;;5077627;28;20205;-61
2021/03/13 11:06:40;;;;;;;13.60;3.00;;;9.90;99.90;;;;;;5065864;28;20195;-61
2021/03/13 11:09:09;;;;;;;12.63;3.20;;;9.50;99.90;;;;;;5065278;28;20211;-61
2021/03/13 11:11:37;;;;;;;19.77;3.63;;;9.60;99.90;;;;;;5067734;28;20203;-61
2021/03/13 11:14:07;;;;;;;12.07;3.27;;;9.70;99.90;;;;;;5070949;28;21068;-61
2021/03/13 11:16:34;;;;;;;21.67;3.93;;;10.10;99.90;;;;;;5067411;28;20195;-61
2021/03/13 11:19:03;;;;;;;11.47;3.07;;;11.00;99.90;;;;;;5069656;28;20184;-61
2021/03/13 11:21:31;;;;;;;12.23;3.93;;;11.00;99.90;;;;;;5067682;28;20786;-62
2021/03/13 11:23:58;;;;;;;15.63;3.53;;;10.60;99.90;;;;;;5063516;28;20214;-61
2021/03/13 11:26:26;;;;;;;13.17;3.40;;;10.30;99.90;;;;;;5062999;28;20192;-63
2021/03/13 11:28:54;;;;;;;12.10;2.93;;;10.30;99.90;;;;;;5065506;28;20625;-60
2021/03/13 11:31:22;;;;;;;12.30;3.23;;;10.40;99.90;;;;;;5066914;28;20251;-61
2021/03/13 11:33:50;;;;;;;14.43;3.40;;;10.30;99.90;;;;;;5059670;28;20245;-61
2021/03/13 11:36:18;;;;;;;15.77;3.63;;;10.30;99.90;;;;;;5062897;28;20231;-61
2021/03/13 11:38:45;;;;;;;16.23;2.87;;;10.30;99.90;;;;;;5069053;28;20196;-61
2021/03/13 11:41:13;;;;;;;19.97;3.30;;;10.30;99.90;;;;;;5072521;28;20191;-61
2021/03/13 11:43:43;;;;;;;16.17;3.10;;;10.30;99.90;;;;;;5068730;28;20311;-61
2021/03/13 11:46:11;;;;;;;13.90;2.90;;;10.70;99.90;;;;;;5061228;28;20196;-61
2021/03/13 11:48:40;;;;;;;13.70;3.20;;;10.80;99.90;;;;;;5067068;28;20192;-61
2021/03/13 11:51:08;;;;;;;12.60;2.67;;;10.30;99.90;;;;;;5066898;28;20188;-61
2021/03/13 11:53:36;;;;;;;8.20;2.80;;;10.00;99.90;;;;;;5065043;28;20295;-61
2021/03/13 11:56:04;;;;;;;9.87;3.13;;;9.80;99.90;;;;;;5064159;28;20679;-61
2021/03/13 11:58:32;;;;;;;10.03;2.77;;;10.10;99.90;;;;;;5062899;28;20200;-61
2021/03/13 12:01:15;;;;;;;11.07;3.00;;;10.50;99.90;;;;;;5061260;28;20249;-61
2021/03/13 12:03:45;;;;;;;9.73;3.13;;;10.30;99.90;;;;;;5066992;28;20214;-61
2021/03/13 12:06:13;;;;;;;13.80;2.80;;;10.20;99.90;;;;;;5068525;28;20196;-61
2021/03/13 12:08:55;;;;;;;7.90;2.60;;;10.60;99.90;;;;;;5062807;28;20673;-61
2021/03/13 12:11:22;;;;;;;7.47;2.37;;;11.40;99.90;;;;;;5061072;28;20204;-62
2021/03/13 12:13:49;;;;;;;9.40;2.30;;;11.90;99.90;;;;;;5064569;28;20274;-61
2021/03/13 12:16:17;;;;;;;11.43;2.73;;;11.90;99.90;;;;;;5060056;28;20266;-61
2021/03/13 12:18:51;;;;;;;11.27;2.93;;;11.70;99.90;;;;;;5054974;28;20196;-60
2021/03/13 12:21:19;;;;;;;8.63;2.90;;;11.10;99.90;;;;;;5062202;28;20196;-61
2021/03/13 12:23:47;;;;;;;9.30;2.60;;;11.00;99.90;;;;;;5055907;28;20219;-60
2021/03/13 12:26:14;;;;;;;8.07;2.63;;;11.10;99.90;;;;;;5065296;28;20279;-61
2021/03/13 12:28:42;;;;;;;13.13;3.13;;;10.80;99.90;;;;;;5070490;28;20188;-61
2021/03/13 12:31:10;;;;;;;12.13;3.07;;;10.60;99.90;;;;;;5070216;28;20192;-60
2021/03/13 12:33:40;;;;;;;14.13;3.27;;;10.50;99.90;;;;;;5067157;28;20200;-60
2021/03/13 12:36:13;;;;;;;12.63;2.90;;;10.90;99.90;;;;;;5065133;28;20195;-61
2021/03/13 12:38:42;;;;;;;15.60;3.00;;;11.70;99.90;;;;;;5065503;28;20233;-62
2021/03/13 12:41:09;;;;;;;11.53;3.30;;;11.90;99.90;;;;;;5065740;28;20204;-61
2021/03/13 12:43:37;;;;;;;10.83;2.97;;;11.70;99.90;;;;;;5067636;28;20322;-61
2021/03/13 12:46:05;;;;;;;9.50;2.77;;;11.30;99.90;;;;;;5065635;28;20267;-60
2021/03/13 12:48:32;;;;;;;12.10;2.80;;;11.20;99.90;;;;;;5069397;28;20249;-61
2021/03/13 12:51:00;;;;;;;7.30;2.87;;;11.00;99.90;;;;;;5064599;28;20204;-61
2021/03/13 12:53:28;;;;;;;8.93;2.30;;;10.80;99.90;;;;;;5063044;28;20202;-61
2021/03/13 12:55:56;;;;;;;19.80;3.50;;;10.90;99.90;;;;;;5066163;28;20257;-61
2021/03/13 12:58:23;;;;;;;10.47;2.83;;;11.50;99.90;;;;;;5061691;28;20192;-61
2021/03/13 13:00:51;;;;;;;14.13;3.50;;;11.70;99.90;;;;;;5065308;28;20282;-61
2021/03/13 13:03:19;;;;;;;9.13;2.83;;;11.40;99.90;;;;;;5069215;28;20285;-61
2021/03/13 13:05:47;;;;;;;11.63;3.30;;;11.60;99.90;;;;;;5066591;28;20199;-61